createdAt,value
2016-07-17T00:00:20.554Z,20.32
2016-07-17T00:01:15.737Z,20.32
2016-07-17T00:02:09.715Z,20.32
2016-07-17T00:03:15.356Z,20.32
2016-07-17T00:04:12.935Z,20.83
2016-07-17T00:05:17.155Z,20.90
2016-07-17T00:06:11.484Z,20.91
2016-07-17T00:07:13.798Z,20.92
2016-07-17T00:08:17.558Z,20.93
2016-07-17T00:09:17.036Z,20.41
2016-07-17T00:10:12.779Z,20.39
2016-07-17T00:11:11.836Z,20.34
2016-07-17T00:12:16.877Z,20.86
2016-07-17T00:13:10.928Z,20.90
2016-07-17T00:14:12.359Z,20.91
2016-07-17T00:15:10.208Z,20.91
2016-07-17T00:16:21.367Z,20.40
2016-07-17T00:17:16.003Z,20.35
2016-07-17T00:18:15.896Z,20.36
2016-07-17T00:19:17.355Z,20.33
2016-07-17T00:20:17.072Z,20.32
2016-07-17T00:21:10.299Z,20.32
2016-07-17T00:22:15.391Z,20.32
2016-07-17T00:23:15.316Z,20.84
2016-07-17T00:24:16.915Z,20.40
2016-07-17T00:25:18.236Z,20.86
2016-07-17T00:26:16.237Z,20.90
2016-07-17T00:27:13.599Z,20.91
2016-07-17T00:28:16.004Z,20.94
2016-07-17T00:29:10.981Z,20.92
2016-07-17T00:30:22.395Z,20.93
2016-07-17T00:31:14.857Z,20.92
2016-07-17T00:32:10.299Z,20.93
2016-07-17T00:33:13.123Z,20.93
2016-07-17T00:34:14.435Z,20.41
2016-07-17T00:35:15.076Z,20.36
2016-07-17T00:36:12.822Z,20.36
2016-07-17T00:37:21.032Z,20.34
2016-07-17T00:38:14.769Z,20.32
2016-07-17T00:39:16.472Z,20.34
2016-07-17T00:40:13.259Z,20.31
2016-07-17T00:41:12.630Z,20.32
2016-07-17T00:42:13.260Z,20.34
2016-07-17T00:43:13.323Z,20.35
2016-07-17T00:44:13.884Z,20.34
2016-07-17T00:45:10.745Z,20.31
2016-07-17T00:46:15.778Z,20.50
2016-07-17T00:47:13.074Z,20.38
2016-07-17T00:48:12.391Z,20.33
2016-07-17T00:49:16.510Z,20.32
2016-07-17T00:50:19.566Z,20.32
2016-07-17T00:51:13.362Z,20.31
2016-07-17T00:52:10.186Z,20.31
2016-07-17T00:53:14.482Z,20.31
2016-07-17T00:54:14.352Z,20.30
2016-07-17T00:55:13.371Z,20.31
2016-07-17T00:56:20.873Z,20.34
2016-07-17T00:57:11.430Z,20.30
2016-07-17T00:58:16.894Z,20.48
2016-07-17T00:59:12.071Z,20.39
2016-07-17T01:00:14.373Z,20.35
2016-07-17T01:01:11.598Z,20.31
2016-07-17T01:02:15.985Z,20.31
2016-07-17T01:03:13.395Z,20.33
2016-07-17T01:04:14.266Z,20.31
2016-07-17T01:05:14.133Z,20.31
2016-07-17T01:06:15.231Z,20.31
2016-07-17T01:07:14.617Z,20.34
2016-07-17T01:08:12.715Z,20.31
2016-07-17T01:09:12.769Z,20.33
2016-07-17T01:10:12.365Z,20.31
2016-07-17T01:11:14.021Z,20.34
2016-07-17T01:12:13.378Z,20.33
2016-07-17T01:13:13.211Z,20.30
2016-07-17T01:14:16.697Z,20.31
2016-07-17T01:15:19.348Z,20.31
2016-07-17T01:16:14.875Z,20.31
2016-07-17T01:17:13.204Z,20.30
2016-07-17T01:18:10.409Z,20.30
2016-07-17T01:19:20.281Z,20.31
2016-07-17T01:20:15.785Z,20.31
2016-07-17T01:21:12.916Z,20.35
2016-07-17T01:22:12.407Z,20.31
2016-07-17T01:23:12.551Z,20.30
2016-07-17T01:24:12.180Z,20.34
2016-07-17T01:25:11.804Z,20.31
2016-07-17T01:26:14.616Z,20.32
2016-07-17T01:27:10.603Z,20.31
2016-07-17T01:28:11.702Z,20.30
2016-07-17T01:29:14.883Z,20.51
2016-07-17T01:30:13.648Z,20.35
2016-07-17T01:31:13.351Z,20.33
2016-07-17T01:32:16.279Z,20.33
2016-07-17T01:33:13.858Z,20.32
2016-07-17T01:34:14.178Z,20.37
2016-07-17T01:35:12.683Z,20.32
2016-07-17T01:36:15.720Z,20.31
2016-07-17T01:37:11.468Z,20.31
2016-07-17T01:38:13.343Z,20.83
2016-07-17T01:39:11.151Z,20.89
2016-07-17T01:40:11.743Z,20.90
2016-07-17T01:41:20.991Z,20.92
2016-07-17T01:42:15.763Z,20.92
2016-07-17T01:43:14.153Z,20.42
2016-07-17T01:44:22.535Z,20.35
2016-07-17T01:45:13.521Z,20.33
2016-07-17T01:46:20.229Z,20.33
2016-07-17T01:47:14.762Z,20.32
2016-07-17T01:48:14.866Z,20.32
2016-07-17T01:49:13.527Z,20.33
2016-07-17T01:50:13.542Z,20.33
2016-07-17T01:51:11.352Z,20.30
2016-07-17T01:52:09.645Z,20.30
2016-07-17T01:53:13.472Z,20.30
2016-07-17T01:54:14.428Z,20.30
2016-07-17T01:55:23.651Z,20.31
2016-07-17T01:56:15.933Z,20.31
2016-07-17T01:57:12.042Z,20.31
2016-07-17T01:58:10.230Z,20.83
2016-07-17T01:59:13.686Z,20.87
2016-07-17T02:00:21.107Z,20.91
2016-07-17T02:01:12.033Z,20.90
2016-07-17T02:02:14.311Z,20.39
2016-07-17T02:03:12.132Z,20.34
2016-07-17T02:04:18.190Z,20.33
2016-07-17T02:05:13.016Z,20.53
2016-07-17T02:06:12.323Z,20.35
2016-07-17T02:07:16.870Z,20.36
2016-07-17T02:08:12.931Z,20.83
2016-07-17T02:09:16.641Z,20.35
2016-07-17T02:10:14.014Z,20.35
2016-07-17T02:11:13.416Z,20.32
2016-07-17T02:12:14.667Z,20.31
2016-07-17T02:13:14.045Z,20.30
2016-07-17T02:14:11.112Z,20.31
2016-07-17T02:15:12.042Z,20.83
2016-07-17T02:16:13.818Z,20.88
2016-07-17T02:17:11.627Z,20.91
2016-07-17T02:18:15.414Z,20.41
2016-07-17T02:19:11.433Z,20.36
2016-07-17T02:20:13.279Z,20.52
2016-07-17T02:21:13.669Z,20.44
2016-07-17T02:22:17.458Z,20.36
2016-07-17T02:23:19.178Z,20.35
2016-07-17T02:24:16.659Z,20.35
2016-07-17T02:25:17.120Z,20.88
2016-07-17T02:26:16.211Z,20.94
2016-07-17T02:27:15.005Z,20.93
2016-07-17T02:28:14.013Z,20.96
2016-07-17T02:29:15.231Z,20.95
2016-07-17T02:30:13.248Z,20.95
2016-07-17T02:31:14.792Z,20.97
2016-07-17T02:32:13.782Z,20.97
2016-07-17T02:33:14.713Z,20.96
2016-07-17T02:34:14.592Z,20.98
2016-07-17T02:35:12.139Z,20.99
2016-07-17T02:36:11.596Z,20.98
2016-07-17T02:37:15.690Z,20.99
2016-07-17T02:38:16.184Z,20.99
2016-07-17T02:39:15.958Z,20.98
2016-07-17T02:40:11.373Z,20.99
2016-07-17T02:41:14.399Z,20.99
2016-07-17T02:42:13.934Z,21.01
2016-07-17T02:43:14.595Z,20.99
2016-07-17T02:44:14.054Z,20.67
2016-07-17T02:45:13.277Z,20.45
2016-07-17T02:46:16.735Z,20.41
2016-07-17T02:47:14.561Z,20.40
2016-07-17T02:48:14.337Z,20.38
2016-07-17T02:49:18.097Z,20.38
2016-07-17T02:50:17.141Z,20.37
2016-07-17T02:51:17.271Z,20.36
2016-07-17T02:52:12.112Z,20.36
2016-07-17T02:53:14.246Z,20.39
2016-07-17T02:54:13.785Z,20.34
2016-07-17T02:55:15.361Z,20.34
2016-07-17T02:56:12.374Z,20.33
2016-07-17T02:57:17.617Z,20.34
2016-07-17T02:58:17.007Z,20.34
2016-07-17T02:59:18.907Z,20.35
2016-07-17T03:00:20.433Z,20.86
2016-07-17T03:01:13.548Z,20.90
2016-07-17T03:02:15.486Z,20.92
2016-07-17T03:03:12.306Z,20.93
2016-07-17T03:04:15.418Z,20.94
2016-07-17T03:05:13.111Z,20.92
2016-07-17T03:06:13.037Z,20.93
2016-07-17T03:07:13.339Z,20.92
2016-07-17T03:08:15.414Z,20.94
2016-07-17T03:09:13.601Z,20.93
2016-07-17T03:10:14.681Z,20.41
2016-07-17T03:11:17.171Z,20.40
2016-07-17T03:12:13.776Z,20.34
2016-07-17T03:13:16.618Z,20.34
2016-07-17T03:14:20.654Z,20.32
2016-07-17T03:15:13.615Z,20.32
2016-07-17T03:16:13.065Z,20.31
2016-07-17T03:17:15.145Z,20.31
2016-07-17T03:18:13.084Z,20.31
2016-07-17T03:19:16.166Z,20.31
2016-07-17T03:20:14.344Z,20.31
2016-07-17T03:21:13.339Z,20.31
2016-07-17T03:22:13.443Z,20.31
2016-07-17T03:23:14.896Z,20.31
2016-07-17T03:24:11.576Z,20.30
2016-07-17T03:25:13.808Z,20.83
2016-07-17T03:26:11.946Z,20.86
2016-07-17T03:27:13.462Z,20.89
2016-07-17T03:28:14.432Z,20.90
2016-07-17T03:29:11.816Z,20.89
2016-07-17T03:30:17.610Z,20.38
2016-07-17T03:31:13.613Z,20.34
2016-07-17T03:32:14.101Z,20.32
2016-07-17T03:33:16.391Z,20.32
2016-07-17T03:34:14.037Z,20.34
2016-07-17T03:35:14.784Z,20.35
2016-07-17T03:36:16.044Z,20.32
2016-07-17T03:37:12.211Z,20.34
2016-07-17T03:38:16.430Z,20.30
2016-07-17T03:39:13.685Z,20.32
2016-07-17T03:40:12.563Z,20.40
2016-07-17T03:41:21.262Z,20.33
2016-07-17T03:42:20.721Z,20.34
2016-07-17T03:43:19.363Z,20.34
2016-07-17T03:44:14.098Z,20.87
2016-07-17T03:45:12.418Z,20.91
2016-07-17T03:46:18.835Z,20.93
2016-07-17T03:47:12.788Z,20.63
2016-07-17T03:48:13.729Z,20.43
2016-07-17T03:49:10.701Z,20.39
2016-07-17T03:50:13.596Z,20.45
2016-07-17T03:51:10.283Z,20.36
2016-07-17T03:52:12.929Z,20.37
2016-07-17T03:53:15.987Z,20.36
2016-07-17T03:54:13.635Z,20.36
2016-07-17T03:55:13.304Z,20.38
2016-07-17T03:56:15.744Z,20.36
2016-07-17T03:57:13.386Z,20.37
2016-07-17T03:58:14.516Z,20.36
2016-07-17T03:59:13.968Z,20.37
2016-07-17T04:00:15.651Z,20.37
2016-07-17T04:01:10.897Z,20.36
2016-07-17T04:02:12.081Z,20.37
2016-07-17T04:03:13.361Z,20.37
2016-07-17T04:04:14.753Z,20.37
2016-07-17T04:05:14.460Z,20.40
2016-07-17T04:06:17.653Z,20.38
2016-07-17T04:07:13.427Z,20.39
2016-07-17T04:08:11.983Z,20.37
2016-07-17T04:09:21.589Z,20.91
2016-07-17T04:10:15.165Z,20.95
2016-07-17T04:11:17.585Z,20.62
2016-07-17T04:12:11.035Z,20.45
2016-07-17T04:13:11.193Z,20.41
2016-07-17T04:14:10.994Z,20.39
2016-07-17T04:15:20.800Z,20.92
2016-07-17T04:16:14.778Z,20.96
2016-07-17T04:17:12.206Z,20.99
2016-07-17T04:18:22.744Z,20.99
2016-07-17T04:19:16.575Z,21.00
2016-07-17T04:20:11.810Z,21.00
2016-07-17T04:21:13.249Z,21.01
2016-07-17T04:22:16.380Z,21.00
2016-07-17T04:23:13.277Z,20.65
2016-07-17T04:24:15.306Z,20.45
2016-07-17T04:25:15.043Z,20.39
2016-07-17T04:26:12.366Z,20.37
2016-07-17T04:27:19.134Z,20.37
2016-07-17T04:28:12.916Z,20.35
2016-07-17T04:29:16.063Z,20.35
2016-07-17T04:30:14.918Z,20.35
2016-07-17T04:31:11.940Z,20.34
2016-07-17T04:32:11.594Z,20.85
2016-07-17T04:33:11.909Z,20.37
2016-07-17T04:34:16.586Z,20.38
2016-07-17T04:35:18.923Z,20.35
2016-07-17T04:36:14.481Z,20.33
2016-07-17T04:37:14.015Z,20.33
2016-07-17T04:38:22.928Z,20.32
2016-07-17T04:39:22.428Z,20.33
2016-07-17T04:40:17.591Z,20.33
2016-07-17T04:41:19.535Z,20.32
2016-07-17T04:42:21.476Z,20.32
2016-07-17T04:43:15.753Z,20.37
2016-07-17T04:44:15.882Z,20.31
2016-07-17T04:45:21.535Z,20.32
2016-07-17T04:46:18.457Z,20.31
2016-07-17T04:47:17.850Z,20.31
2016-07-17T04:48:15.195Z,20.32
2016-07-17T04:49:13.051Z,20.32
2016-07-17T04:50:17.770Z,20.32
2016-07-17T04:51:19.311Z,20.32
2016-07-17T04:52:15.633Z,20.32
2016-07-17T04:53:14.922Z,20.32
2016-07-17T04:54:16.166Z,20.32
2016-07-17T04:55:14.722Z,20.34
2016-07-17T04:56:18.221Z,20.31
2016-07-17T04:57:21.609Z,20.31
2016-07-17T04:58:25.496Z,20.31
2016-07-17T04:59:16.093Z,20.31
2016-07-17T05:00:16.705Z,20.32
2016-07-17T05:01:16.314Z,20.31
2016-07-17T05:02:23.887Z,20.32
2016-07-17T05:03:16.225Z,20.38
2016-07-17T05:04:20.215Z,20.31
2016-07-17T05:05:26.751Z,20.31
2016-07-17T05:06:21.777Z,20.32
2016-07-17T05:07:17.693Z,20.31
2016-07-17T05:08:23.584Z,20.30
2016-07-17T05:09:24.964Z,20.30
2016-07-17T05:10:21.950Z,20.30
2016-07-17T05:11:32.870Z,20.30
2016-07-17T05:12:16.068Z,20.30
2016-07-17T05:13:18.543Z,20.31
2016-07-17T05:14:19.881Z,20.31
2016-07-17T05:15:26.759Z,20.30
2016-07-17T05:16:16.471Z,20.34
2016-07-17T05:17:22.441Z,20.31
2016-07-17T05:18:16.511Z,20.32
2016-07-17T05:19:21.249Z,20.32
2016-07-17T05:20:22.733Z,20.33
2016-07-17T05:21:15.538Z,20.33
2016-07-17T05:22:13.180Z,20.32
2016-07-17T05:23:13.504Z,20.31
2016-07-17T05:24:13.205Z,20.32
2016-07-17T05:25:15.731Z,20.86
2016-07-17T05:26:21.821Z,20.90
2016-07-17T05:27:17.239Z,20.92
2016-07-17T05:28:15.653Z,20.93
2016-07-17T05:29:23.883Z,20.94
2016-07-17T05:30:18.358Z,20.95
2016-07-17T05:31:17.238Z,20.95
2016-07-17T05:32:16.786Z,20.95
2016-07-17T05:33:16.845Z,20.94
2016-07-17T05:34:16.760Z,20.94
2016-07-17T05:35:19.370Z,20.95
2016-07-17T05:36:16.980Z,20.57
2016-07-17T05:37:27.923Z,20.42
2016-07-17T05:38:21.880Z,20.38
2016-07-17T05:39:15.567Z,20.36
2016-07-17T05:40:22.446Z,20.35
2016-07-17T05:41:20.282Z,20.34
2016-07-17T05:42:25.535Z,20.35
2016-07-17T05:43:27.140Z,20.34
2016-07-17T05:44:16.834Z,20.33
2016-07-17T05:45:17.455Z,20.33
2016-07-17T05:46:19.090Z,20.31
2016-07-17T05:47:26.361Z,20.32
2016-07-17T05:48:19.308Z,20.31
2016-07-17T05:49:21.741Z,20.30
2016-07-17T05:50:10.724Z,20.31
2016-07-17T05:51:20.775Z,20.31
2016-07-17T05:52:15.252Z,20.32
2016-07-17T05:53:14.441Z,20.31
2016-07-17T05:54:21.553Z,20.34
2016-07-17T05:55:26.246Z,20.84
2016-07-17T05:56:22.265Z,20.88
2016-07-17T05:57:17.440Z,20.89
2016-07-17T05:58:16.436Z,20.91
2016-07-17T05:59:22.220Z,20.90
2016-07-17T06:00:17.678Z,20.38
2016-07-17T06:01:22.176Z,20.34
2016-07-17T06:02:21.539Z,20.32
2016-07-17T06:03:19.736Z,20.31
2016-07-17T06:04:15.566Z,20.32
2016-07-17T06:05:20.762Z,20.32
2016-07-17T06:06:16.686Z,20.31
2016-07-17T06:07:18.835Z,20.31
2016-07-17T06:08:14.848Z,20.32
2016-07-17T06:09:27.040Z,20.31
2016-07-17T06:10:22.385Z,20.32
2016-07-17T06:11:16.078Z,20.35
2016-07-17T06:12:22.916Z,20.33
2016-07-17T06:13:16.114Z,20.33
2016-07-17T06:14:22.301Z,20.33
2016-07-17T06:15:18.590Z,20.34
2016-07-17T06:16:25.579Z,20.33
2016-07-17T06:17:24.437Z,20.33
2016-07-17T06:18:15.891Z,20.34
2016-07-17T06:19:18.627Z,20.34
2016-07-17T06:20:22.412Z,20.33
2016-07-17T06:21:14.535Z,20.34
2016-07-17T06:22:20.173Z,20.33
2016-07-17T06:23:15.367Z,20.35
2016-07-17T06:24:16.193Z,20.34
2016-07-17T06:25:21.434Z,20.34
2016-07-17T06:26:17.541Z,20.40
2016-07-17T06:27:12.848Z,20.33
2016-07-17T06:28:16.234Z,20.34
2016-07-17T06:29:22.887Z,20.33
2016-07-17T06:30:20.131Z,20.34
2016-07-17T06:31:17.118Z,20.37
2016-07-17T06:32:20.975Z,20.33
2016-07-17T06:33:17.601Z,20.37
2016-07-17T06:34:21.902Z,20.36
2016-07-17T06:35:21.995Z,20.36
2016-07-17T06:36:15.462Z,20.32
2016-07-17T06:37:16.352Z,20.41
2016-07-17T06:38:16.922Z,20.33
2016-07-17T06:39:23.371Z,20.37
2016-07-17T06:40:18.873Z,20.34
2016-07-17T06:41:23.142Z,20.37
2016-07-17T06:42:27.263Z,20.34
2016-07-17T06:43:13.364Z,20.33
2016-07-17T06:44:22.172Z,20.33
2016-07-17T06:45:16.255Z,20.86
2016-07-17T06:46:19.122Z,20.90
2016-07-17T06:47:22.507Z,20.93
2016-07-17T06:48:13.503Z,20.95
2016-07-17T06:49:15.867Z,20.66
2016-07-17T06:50:16.352Z,20.43
2016-07-17T06:51:17.419Z,20.37
2016-07-17T06:52:19.574Z,20.35
2016-07-17T06:53:13.951Z,20.35
2016-07-17T06:54:19.087Z,20.34
2016-07-17T06:55:25.607Z,20.34
2016-07-17T06:56:14.485Z,20.34
2016-07-17T06:57:18.179Z,20.51
2016-07-17T06:58:21.482Z,20.38
2016-07-17T06:59:20.726Z,20.35
2016-07-17T07:00:16.060Z,20.35
2016-07-17T07:01:18.308Z,20.34
2016-07-17T07:02:15.503Z,20.34
2016-07-17T07:03:23.236Z,20.34
2016-07-17T07:04:27.754Z,20.34
2016-07-17T07:05:12.410Z,20.33
2016-07-17T07:06:16.629Z,20.87
2016-07-17T07:07:26.965Z,20.39
2016-07-17T07:08:20.408Z,20.37
2016-07-17T07:09:21.030Z,20.36
2016-07-17T07:10:15.501Z,20.37
2016-07-17T07:11:18.690Z,20.37
2016-07-17T07:12:16.468Z,20.37
2016-07-17T07:13:22.699Z,20.37
2016-07-17T07:14:17.382Z,20.36
2016-07-17T07:15:14.941Z,20.37
2016-07-17T07:16:27.442Z,20.40
2016-07-17T07:17:16.965Z,20.42
2016-07-17T07:18:12.596Z,20.37
2016-07-17T07:19:15.960Z,20.37
2016-07-17T07:20:18.448Z,20.38
2016-07-17T07:21:17.141Z,20.42
2016-07-17T07:22:27.536Z,20.37
2016-07-17T07:23:21.348Z,20.36
2016-07-17T07:24:11.277Z,20.36
2016-07-17T07:25:17.975Z,20.37
2016-07-17T07:26:17.574Z,20.35
2016-07-17T07:27:16.759Z,20.35
2016-07-17T07:28:19.840Z,20.36
2016-07-17T07:29:16.216Z,20.36
2016-07-17T07:30:16.679Z,20.36
2016-07-17T07:31:16.319Z,20.40
2016-07-17T07:32:27.650Z,20.37
2016-07-17T07:33:12.911Z,20.34
2016-07-17T07:34:22.965Z,20.36
2016-07-17T07:35:23.678Z,20.39
2016-07-17T07:36:14.217Z,20.35
2016-07-17T07:37:20.387Z,20.89
2016-07-17T07:38:16.532Z,20.94
2016-07-17T07:39:18.178Z,20.94
2016-07-17T07:40:11.954Z,20.43
2016-07-17T07:41:15.989Z,20.41
2016-07-17T07:42:14.558Z,20.38
2016-07-17T07:43:15.160Z,20.36
2016-07-17T07:44:16.258Z,20.36
2016-07-17T07:45:19.758Z,20.41
2016-07-17T07:46:16.308Z,20.36
2016-07-17T07:47:21.449Z,20.38
2016-07-17T07:48:14.635Z,20.36
2016-07-17T07:49:13.496Z,20.40
2016-07-17T07:50:18.449Z,20.89
2016-07-17T07:51:14.551Z,20.94
2016-07-17T07:52:21.630Z,20.96
2016-07-17T07:53:16.950Z,20.65
2016-07-17T07:54:12.598Z,20.46
2016-07-17T07:55:14.671Z,20.41
2016-07-17T07:56:16.466Z,20.39
2016-07-17T07:57:14.254Z,20.37
2016-07-17T07:58:16.159Z,20.39
2016-07-17T07:59:12.162Z,20.37
2016-07-17T08:00:10.478Z,20.37
2016-07-17T08:01:12.560Z,20.38
2016-07-17T08:02:13.227Z,20.38
2016-07-17T08:03:16.320Z,20.39
2016-07-17T08:04:13.573Z,20.38
2016-07-17T08:05:18.684Z,20.45
2016-07-17T08:06:17.281Z,20.41
2016-07-17T08:07:15.722Z,20.41
2016-07-17T08:08:18.556Z,20.42
2016-07-17T08:09:13.628Z,20.43
2016-07-17T08:10:17.937Z,20.43
2016-07-17T08:11:14.006Z,20.48
2016-07-17T08:12:12.800Z,20.48
2016-07-17T08:13:13.672Z,20.44
2016-07-17T08:14:15.200Z,20.44
2016-07-17T08:15:12.806Z,20.45
2016-07-17T08:16:19.586Z,20.48
2016-07-17T08:17:14.227Z,20.45
2016-07-17T08:18:12.912Z,20.46
2016-07-17T08:19:15.678Z,20.48
2016-07-17T08:20:15.380Z,20.53
2016-07-17T08:21:15.975Z,20.53
2016-07-17T08:22:15.301Z,20.53
2016-07-17T08:23:13.427Z,20.55
2016-07-17T08:24:16.340Z,20.55
2016-07-17T08:25:14.718Z,20.56
2016-07-17T08:26:17.602Z,20.57
2016-07-17T08:27:13.870Z,20.56
2016-07-17T08:28:14.740Z,20.56
2016-07-17T08:29:14.384Z,20.54
2016-07-17T08:30:16.862Z,20.54
2016-07-17T08:31:14.286Z,20.54
2016-07-17T08:32:14.491Z,20.54
2016-07-17T08:33:23.798Z,20.52
2016-07-17T08:34:16.022Z,20.59
2016-07-17T08:35:18.384Z,20.54
2016-07-17T08:36:26.738Z,20.52
2016-07-17T08:37:19.321Z,20.52
2016-07-17T08:38:20.941Z,20.52
2016-07-17T08:39:28.089Z,20.51
2016-07-17T08:40:16.276Z,20.51
2016-07-17T08:41:15.981Z,20.50
2016-07-17T08:42:15.151Z,21.03
2016-07-17T08:43:21.616Z,21.09
2016-07-17T08:44:17.118Z,21.09
2016-07-17T08:45:16.254Z,20.58
2016-07-17T08:46:16.253Z,20.56
2016-07-17T08:47:24.199Z,20.53
2016-07-17T08:48:20.232Z,20.54
2016-07-17T08:49:17.564Z,20.52
2016-07-17T08:50:12.051Z,20.51
2016-07-17T08:51:18.605Z,20.51
2016-07-17T08:52:19.225Z,20.50
2016-07-17T08:53:17.800Z,20.51
2016-07-17T08:54:16.154Z,20.51
2016-07-17T08:55:20.796Z,20.50
2016-07-17T08:56:15.877Z,20.50
2016-07-17T08:57:22.130Z,20.54
2016-07-17T08:58:19.884Z,20.50
2016-07-17T08:59:25.318Z,20.50
2016-07-17T09:00:18.771Z,20.50
2016-07-17T09:01:16.725Z,20.50
2016-07-17T09:02:21.253Z,20.51
2016-07-17T09:03:16.274Z,20.50
2016-07-17T09:04:18.085Z,20.51
2016-07-17T09:05:16.381Z,20.51
2016-07-17T09:06:13.875Z,20.50
2016-07-17T09:07:19.642Z,21.03
2016-07-17T09:08:16.755Z,21.08
2016-07-17T09:09:21.998Z,21.11
2016-07-17T09:10:16.754Z,20.58
2016-07-17T09:11:17.225Z,20.54
2016-07-17T09:12:15.480Z,20.52
2016-07-17T09:13:17.234Z,20.54
2016-07-17T09:14:18.680Z,21.06
2016-07-17T09:15:24.522Z,21.10
2016-07-17T09:16:16.779Z,21.12
2016-07-17T09:17:35.514Z,20.60
2016-07-17T09:18:23.163Z,20.56
2016-07-17T09:19:24.133Z,20.56
2016-07-17T09:20:32.958Z,20.54
2016-07-17T09:21:23.749Z,20.54
2016-07-17T09:22:19.148Z,21.10
2016-07-17T09:23:17.498Z,21.15
2016-07-17T09:24:18.958Z,21.19
2016-07-17T09:25:19.159Z,20.68
2016-07-17T09:26:22.659Z,20.65
2016-07-17T09:27:17.378Z,20.65
2016-07-17T09:28:23.777Z,20.64
2016-07-17T09:29:18.177Z,20.67
2016-07-17T09:30:19.330Z,20.71
2016-07-17T09:31:15.109Z,20.67
2016-07-17T09:32:20.544Z,20.67
2016-07-17T09:33:15.478Z,20.68
2016-07-17T09:34:18.202Z,20.68
2016-07-17T09:35:19.132Z,20.64
2016-07-17T09:36:37.595Z,20.61
2016-07-17T09:37:29.293Z,20.58
2016-07-17T09:38:30.005Z,20.54
2016-07-17T09:39:23.769Z,20.50
2016-07-17T09:40:21.673Z,20.45
2016-07-17T09:41:22.964Z,20.45
2016-07-17T09:42:26.761Z,20.39
2016-07-17T09:43:19.893Z,20.38
2016-07-17T09:44:28.106Z,20.38
2016-07-17T09:45:17.670Z,20.38
2016-07-17T09:46:18.915Z,20.37
2016-07-17T09:47:18.399Z,20.41
2016-07-17T09:48:28.414Z,20.37
2016-07-17T09:49:24.968Z,20.33
2016-07-17T09:50:22.327Z,20.33
2016-07-17T09:51:23.037Z,20.34
2016-07-17T09:52:21.233Z,20.33
2016-07-17T09:53:18.136Z,20.30
2016-07-17T09:54:22.812Z,20.32
2016-07-17T09:55:14.260Z,20.32
2016-07-17T09:56:17.236Z,20.33
2016-07-17T09:57:20.556Z,20.35
2016-07-17T09:58:22.369Z,20.39
2016-07-17T09:59:28.688Z,20.36
2016-07-17T10:00:38.755Z,20.38
2016-07-17T10:01:28.139Z,20.40
2016-07-17T10:02:28.603Z,20.43
2016-07-17T10:03:31.211Z,20.44
2016-07-17T10:04:31.236Z,20.43
2016-07-17T10:05:25.264Z,20.40
2016-07-17T10:08:59.523Z,23.19
2016-07-17T10:09:21.578Z,23.05
2016-07-17T10:09:48.726Z,23.33
2016-07-17T10:10:42.477Z,22.56
2016-07-17T10:11:40.267Z,22.11
2016-07-17T10:12:37.322Z,21.81
2016-07-17T10:13:39.369Z,21.58
2016-07-17T10:14:36.021Z,21.46
2016-07-17T10:15:35.723Z,21.28
2016-07-17T10:16:39.120Z,21.17
2016-07-17T10:17:27.865Z,21.10
2016-07-17T10:18:26.135Z,21.03
2016-07-17T10:19:41.691Z,21.02
2016-07-17T10:20:39.008Z,20.92
2016-07-17T10:21:34.946Z,20.89
2016-07-17T10:22:28.444Z,20.87
2016-07-17T10:23:40.411Z,20.85
2016-07-17T10:24:37.366Z,20.83
2016-07-17T10:25:35.285Z,20.81
2016-07-17T10:26:43.165Z,20.81
2016-07-17T10:27:38.183Z,20.79
2016-07-17T10:28:33.250Z,20.78
2016-07-17T10:30:38.731Z,20.78
2016-07-17T10:31:35.200Z,20.78
2016-07-17T10:32:27.139Z,20.77
2016-07-17T10:33:32.747Z,20.76
2016-07-17T10:34:21.039Z,20.78
2016-07-17T10:35:20.876Z,20.78
2016-07-17T10:36:23.114Z,20.78
2016-07-17T10:37:26.502Z,20.77
2016-07-17T10:38:27.944Z,20.77
2016-07-17T10:39:27.329Z,20.77
2016-07-17T10:40:35.877Z,20.78
2016-07-17T10:41:25.601Z,20.78
2016-07-17T10:42:25.061Z,20.77
2016-07-17T10:43:31.082Z,20.75
2016-07-17T10:44:27.205Z,20.76
2016-07-17T10:45:29.884Z,20.77
2016-07-17T10:46:26.732Z,20.75
2016-07-17T10:47:33.068Z,20.75
2016-07-17T10:48:25.814Z,20.76
2016-07-17T10:49:26.843Z,20.76
2016-07-17T10:50:37.765Z,20.77
2016-07-17T10:51:44.087Z,20.76
2016-07-17T10:52:37.605Z,20.76
2016-07-17T10:53:27.553Z,20.76
2016-07-17T10:54:20.930Z,20.79
2016-07-17T10:55:27.285Z,20.76
2016-07-17T10:56:37.922Z,20.76
2016-07-17T10:57:29.764Z,20.76
2016-07-17T10:58:25.065Z,20.75
2016-07-17T10:59:27.439Z,20.75
2016-07-17T11:00:41.383Z,20.75
2016-07-17T11:01:42.836Z,20.75
2016-07-17T11:02:34.564Z,20.75
2016-07-17T11:03:22.593Z,20.75
2016-07-17T11:04:27.012Z,20.75
2016-07-17T11:05:27.623Z,20.75
2016-07-17T11:06:28.342Z,20.76
2016-07-17T11:07:37.928Z,20.75
2016-07-17T11:08:37.119Z,20.75
2016-07-17T11:09:33.986Z,20.76
2016-07-17T11:10:30.243Z,20.80
2016-07-17T11:11:37.680Z,20.75
2016-07-17T11:12:35.582Z,20.76
2016-07-17T11:13:29.981Z,20.76
2016-07-17T11:14:44.830Z,20.77
2016-07-17T11:15:26.316Z,20.77
2016-07-17T11:16:38.361Z,20.77
2016-07-17T11:17:26.732Z,20.79
2016-07-17T11:18:30.843Z,20.80
2016-07-17T11:19:27.589Z,20.80
2016-07-17T11:20:37.514Z,20.86
2016-07-17T11:21:27.610Z,20.82
2016-07-17T11:22:20.963Z,20.81
2016-07-17T11:23:24.020Z,20.81
2016-07-17T11:24:25.871Z,20.80
2016-07-17T11:25:28.638Z,20.79
2016-07-17T11:26:33.997Z,20.79
2016-07-17T11:27:26.483Z,20.79
2016-07-17T11:28:29.206Z,20.78
2016-07-17T11:29:38.717Z,20.77
2016-07-17T11:30:30.009Z,20.77
2016-07-17T11:31:38.016Z,20.76
2016-07-17T11:32:40.052Z,20.76
2016-07-17T11:33:36.118Z,20.75
2016-07-17T11:34:37.077Z,20.75
2016-07-17T11:35:27.420Z,20.74
2016-07-17T11:36:26.653Z,20.74
2016-07-17T11:37:33.236Z,20.78
2016-07-17T11:38:28.254Z,20.76
2016-07-17T11:39:33.791Z,20.76
2016-07-17T11:40:29.629Z,20.76
2016-07-17T11:41:27.666Z,20.75
2016-07-17T11:42:34.353Z,20.77
2016-07-17T11:43:22.051Z,20.76
2016-07-17T11:44:28.181Z,20.76
2016-07-17T11:45:31.191Z,20.77
2016-07-17T11:46:30.036Z,20.85
2016-07-17T11:47:15.102Z,20.78
2016-07-17T11:48:31.349Z,20.78
2016-07-17T11:49:31.445Z,20.78
2016-07-17T11:50:27.394Z,20.77
2016-07-17T11:51:25.452Z,20.77
2016-07-17T11:52:29.684Z,20.77
2016-07-17T11:53:24.752Z,20.77
2016-07-17T11:54:34.640Z,20.77
2016-07-17T11:55:27.336Z,20.77
2016-07-17T11:56:22.760Z,20.81
2016-07-17T11:57:27.119Z,20.77
2016-07-17T11:58:36.274Z,20.77
2016-07-17T11:59:26.583Z,20.76
2016-07-17T12:00:37.819Z,20.76
2016-07-17T12:01:28.135Z,20.75
2016-07-17T12:02:28.393Z,20.75
2016-07-17T12:03:28.047Z,20.75
2016-07-17T12:04:31.023Z,20.74
2016-07-17T12:05:27.048Z,20.74
2016-07-17T12:06:23.744Z,20.74
2016-07-17T12:07:22.705Z,20.73
2016-07-17T12:08:27.338Z,20.72
2016-07-17T12:09:31.141Z,20.73
2016-07-17T12:10:31.588Z,20.72
2016-07-17T12:11:22.152Z,20.72
2016-07-17T12:12:38.411Z,20.72
2016-07-17T12:13:24.897Z,20.72
2016-07-17T12:14:23.024Z,20.71
2016-07-17T12:15:39.115Z,20.71
2016-07-17T12:16:21.663Z,20.71
2016-07-17T12:17:38.457Z,20.74
2016-07-17T12:18:26.663Z,20.71
2016-07-17T12:19:20.539Z,20.71
2016-07-17T12:20:28.124Z,20.71
2016-07-17T12:21:27.629Z,20.74
2016-07-17T12:22:27.010Z,20.70
2016-07-17T12:23:24.356Z,20.71
2016-07-17T12:24:39.380Z,20.71
2016-07-17T12:25:31.931Z,20.70
2016-07-17T12:26:34.735Z,20.70
2016-07-17T12:27:33.985Z,20.70
2016-07-17T12:28:31.172Z,20.69
2016-07-17T12:29:21.982Z,20.77
2016-07-17T12:30:23.487Z,20.69
2016-07-17T12:31:26.183Z,20.70
2016-07-17T12:32:27.322Z,20.69
2016-07-17T12:33:27.917Z,20.69
2016-07-17T12:34:33.796Z,20.69
2016-07-17T12:35:39.058Z,20.69
2016-07-17T12:36:37.727Z,20.71
2016-07-17T12:37:39.439Z,20.68
2016-07-17T12:38:35.832Z,20.68
2016-07-17T12:39:33.022Z,20.68
2016-07-17T12:40:43.165Z,20.69
2016-07-17T12:41:41.044Z,20.68
2016-07-17T12:42:25.164Z,20.69
2016-07-17T12:43:32.986Z,20.69
2016-07-17T12:44:26.674Z,20.68
2016-07-17T12:45:23.913Z,20.68
2016-07-17T12:46:38.194Z,20.68
2016-07-17T12:47:27.139Z,20.66
2016-07-17T12:48:39.014Z,20.67
2016-07-17T12:49:47.067Z,20.67
2016-07-17T12:50:32.158Z,20.69
2016-07-17T12:51:21.684Z,20.65
2016-07-17T12:52:47.315Z,20.66
2016-07-17T12:53:31.945Z,20.65
2016-07-17T12:54:37.493Z,20.65